Latest Weather Observations for Pirlangimpi

IDD60901

Issued at 8:21 pm CST Sunday 24 March 2019 (issued every 10 minutes, with the page automatically refreshed every 10 minutes)

About weather observations | Map of Darwin area stations | Latest observations for Darwin area | Other Formats
Station Details ID: 014142 Name: PIRLANGIMPI AIRPORT Lat: -11.40 Lon: 130.42 Height: 18.3 m
Data from the previous 72 hours. | See also: Recent months at Pirlangimpi
Date/Time
CST
Temp
°C
App
Temp
°C
Dew
Point
°C
Rel
Hum
%
Delta-T
°C
Wind Press
QNH
hPa
Press
MSL
hPa
Rain since
9am
mm
Dir  Spd
km/h
Gust
km/h
Spd
kts
Gust
kts
24/08:00pm 25.0 30.4 23.2 90 1.2 CALM 0 6 0 3 1009.0 1008.9 1.8
24/07:30pm 24.9 30.1 22.8 88 1.4 CALM 0 0 0 0 1008.6 1008.5 1.8
24/07:00pm 25.4 30.3 22.3 83 2.1 CALM 0 2 0 1 1007.8 1007.7 1.8
24/06:30pm 27.0 30.5 22.2 75 3.2 SE 7 13 4 7 1008.1 1008.0 1.8
24/06:00pm 28.3 34.7 24.9 82 2.4 CALM 0 0 0 0 1008.1 1008.0 1.8
24/05:30pm 28.3 33.3 23.9 77 3.0 WNW 4 7 2 4 1008.0 1007.9 1.8
24/05:00pm 28.5 33.0 23.6 75 3.4 WNW 6 13 3 7 1007.6 1007.5 1.8
24/04:30pm 28.6 33.1 23.9 75 3.3 WNW 7 15 4 8 1007.6 1007.5 1.8
24/04:00pm 28.0 31.5 24.2 80 2.6 NW 13 22 7 12 1007.1 1007.0 1.8
24/03:30pm 27.9 31.5 24.3 81 2.5 NW 13 26 7 14 1007.0 1006.9 1.8
24/03:00pm 27.9 32.6 24.9 84 2.1 NNW 9 19 5 10 1007.2 1007.1 1.8
24/02:30pm 27.7 32.0 24.9 85 2.0 NNW 11 17 6 9 1007.4 1007.3 1.8
24/02:00pm 27.5 31.3 24.7 85 1.9 NW 13 24 7 13 1007.7 1007.6 1.8
24/01:30pm 28.1 32.5 24.5 81 2.5 NW 9 28 5 15 1008.2 1008.1 1.8
24/01:00pm 27.7 32.3 24.1 81 2.5 NW 7 13 4 7 1008.5 1008.4 1.8
24/12:30pm 27.4 31.3 24.3 83 2.2 NNW 11 19 6 10 1008.7 1008.6 1.8
24/12:00pm 26.9 31.2 24.2 85 1.9 NNW 9 24 5 13 1009.1 1009.0 1.8
24/11:30am 26.4 30.8 24.4 89 1.4 NNW 9 15 5 8 1009.1 1009.0 1.8
24/11:00am 24.6 29.5 23.7 95 0.6 N 4 7 2 4 1009.5 1009.4 1.6
24/10:30am 23.7 28.2 22.9 95 0.5 NNW 4 6 2 3 1009.6 1009.5 1.6
24/10:00am 23.1 27.6 22.3 95 0.5 NNW 2 6 1 3 1009.8 1009.7 1.6
24/09:30am 23.0 27.0 22.0 94 0.7 NE 4 7 2 4 1009.9 1009.8 1.6
24/09:00am 23.1 26.6 21.9 93 0.8 WNW 6 9 3 5 1010.6 1010.5 132.6
24/08:30am 23.6 26.7 22.2 92 0.9 WNW 9 20 5 11 1009.9 1009.8 131.8
24/08:00am 23.9 26.5 22.7 93 0.8 WSW 13 26 7 14 1010.4 1010.3 129.4
24/07:30am 23.7 26.7 22.7 94 0.7 SSE 11 22 6 12 1009.1 1009.0 128.0
24/07:00am 23.3 26.6 22.5 95 0.5 ENE 9 13 5 7 1008.4 1008.3 126.8
24/06:30am 23.2 26.8 22.4 95 0.5 ESE 7 11 4 6 1008.8 1008.7 124.4
24/06:00am 23.5 27.3 22.8 96 0.5 SE 7 9 4 5 1008.6 1008.5 116.8
24/05:30am 23.6 28.8 22.9 96 0.5 CALM 0 4 0 2 1008.3 1008.2 114.8
24/05:00am 23.6 27.1 22.9 96 0.5 NNW 9 17 5 9 1008.1 1008.0 112.6
24/04:30am 23.7 27.8 22.9 95 0.5 WNW 6 13 3 7 1008.9 1008.8 100.2
24/04:00am 23.9 28.0 22.9 94 0.7 SSW 6 9 3 5 1008.3 1008.2 91.0
24/03:30am 23.8 27.5 22.6 93 0.8 NW 7 15 4 8 1007.6 1007.5 87.2
24/03:00am 24.9 29.7 24.2 96 0.5 WNW 6 17 3 9 1008.0 1007.9 84.2
24/02:30am 24.3 29.4 23.4 95 0.6 NNW 2 6 1 3 1007.3 1007.2 83.2
24/02:00am 24.3 28.6 23.3 94 0.7 NNW 6 13 3 7 1007.3 1007.2 83.2
24/01:30am 23.9 28.0 23.0 95 0.6 N 6 9 3 5 1007.5 1007.4 83.0
24/01:00am 23.5 26.9 22.7 95 0.5 N 9 13 5 7 1007.8 1007.7 79.8
24/12:30am 23.9 26.6 22.9 94 0.7 SW 13 24 7 13 1009.0 1008.9 62.8
24/12:00am 23.9 25.9 22.9 94 0.7 SSE 17 33 9 18 1008.9 1008.8 49.6
 
Date/Time
CST
Temp
°C
App
Temp
°C
Dew
Point
°C
Rel
Hum
%
Delta-T
°C
Wind Press
QNH
hPa
Press
MSL
hPa
Rain since
9am
mm
Dir  Spd
km/h
Gust
km/h
Spd
kts
Gust
kts
23/11:30pm 24.8 26.7 23.8 94 0.7 S 20 39 11 21 1008.8 1008.7 39.6
23/11:00pm 25.4 29.7 23.3 88 1.4 WSW 6 17 3 9 1008.1 1008.0 8.8
23/10:30pm 25.5 27.0 23.0 86 1.7 SW 20 41 11 22 1008.0 1007.9 5.2
23/10:00pm 29.1 34.7 25.5 81 2.5 W 6 11 3 6 1007.8 1007.7 0.0
23/09:30pm 29.2 35.1 25.4 80 2.7 W 4 13 2 7 1007.3 1007.2 0.0
23/09:00pm 29.2 34.9 25.6 81 2.5 WNW 6 13 3 7 1007.2 1007.1 0.0
23/08:30pm 29.2 34.6 25.4 80 2.7 WNW 7 13 4 7 1006.3 1006.2 0.0
23/08:00pm 29.1 34.7 25.7 82 2.4 W 7 17 4 9 1005.8 1005.7 0.0
23/07:30pm 29.1 34.5 25.5 81 2.5 WNW 7 17 4 9 1006.0 1005.9 0.0
23/07:00pm 29.4 33.9 25.2 78 3.0 WNW 11 24 6 13 1005.8 1005.7 0.0
23/06:30pm 29.4 34.3 25.2 78 3.0 W 9 20 5 11 1005.6 1005.5 0.0
23/06:00pm 29.5 34.6 25.0 77 3.2 W 7 15 4 8 1006.1 1006.0 0.0
23/05:30pm 29.7 34.4 25.0 76 3.3 W 9 26 5 14 1006.0 1005.9 0.0
23/05:00pm 29.9 34.8 25.2 76 3.3 W 9 17 5 9 1005.6 1005.5 0.0
23/04:30pm 30.2 34.4 24.8 73 3.8 WNW 11 32 6 17 1005.2 1005.1 0.0
23/04:00pm 30.7 35.6 25.3 73 3.8 W 9 19 5 10 1005.1 1005.0 0.0
23/03:30pm 30.7 34.9 24.8 71 4.2 W 11 26 6 14 1005.1 1005.0 0.0
23/03:00pm 31.3 35.7 24.4 66 4.8 WNW 9 20 5 11 1005.3 1005.2 0.0
23/02:30pm 30.2 35.0 24.4 71 4.1 WNW 7 13 4 7 1005.8 1005.7 0.0
23/02:00pm 29.6 33.7 23.3 69 4.3 WNW 7 17 4 9 1006.4 1006.3 0.0
23/01:30pm 29.6 34.7 24.7 75 3.4 WNW 6 11 3 6 1007.2 1007.1 0.0
23/01:00pm 29.4 33.7 24.3 74 3.5 WNW 9 24 5 13 1007.6 1007.5 0.0
23/12:30pm 30.0 35.3 24.9 74 3.6 W 6 17 3 9 1007.6 1007.5 0.0
23/12:00pm 28.8 33.3 23.7 74 3.5 WNW 6 9 3 5 1007.9 1007.8 0.0
23/11:30am 28.3 33.2 24.3 79 2.8 WNW 6 15 3 8 1008.1 1008.0 0.0
23/11:00am 28.2 33.1 25.2 84 2.1 WNW 9 20 5 11 1008.0 1007.9 0.0
23/10:30am 28.5 33.7 25.1 82 2.4 WNW 7 19 4 10 1008.2 1008.1 0.0
23/10:00am 28.9 34.0 24.9 79 2.8 WNW 7 13 4 7 1008.0 1007.9 0.0
23/09:30am 28.6 33.5 24.4 78 2.9 W 6 15 3 8 1008.4 1008.3 0.0
23/09:00am 27.8 33.0 24.2 81 2.5 WSW 4 9 2 5 1008.4 1008.3 65.8
23/08:30am 26.7 31.8 24.0 85 1.9 WNW 4 11 2 6 1008.2 1008.1 65.8
23/08:00am 25.5 31.3 24.5 94 0.7 N 2 4 1 2 1007.3 1007.2 65.8
23/07:30am 25.3 30.9 24.3 94 0.7 N 2 4 1 2 1006.6 1006.5 65.8
23/07:00am 24.8 30.2 23.9 95 0.6 NW 2 4 1 2 1006.1 1006.0 65.8
23/06:30am 24.9 30.7 23.9 94 0.7 CALM 0 0 0 0 1005.3 1005.2 65.8
23/06:00am 25.3 30.3 23.9 92 1.0 NNW 4 7 2 4 1005.7 1005.6 65.8
23/05:30am 25.0 30.1 24.1 95 0.6 WNW 4 9 2 5 1006.1 1006.0 65.6
23/05:00am 24.8 30.2 23.9 95 0.6 NW 2 4 1 2 1005.7 1005.6 65.6
23/04:30am 24.6 30.3 23.7 95 0.6 CALM 0 4 0 2 1005.8 1005.7 65.6
23/04:00am 24.6 29.8 23.6 94 0.7 WSW 2 6 1 3 1006.2 1006.1 65.6
23/03:30am 24.3 28.0 22.6 90 1.1 NW 7 17 4 9 1007.1 1007.0 65.0
23/03:00am 29.1 34.6 25.3 80 2.7 WNW 6 13 3 7 1006.5 1006.4 48.4
23/02:30am 28.8 34.4 25.4 82 2.4 WNW 6 15 3 8 1006.2 1006.1 48.4
23/02:00am 28.9 34.4 25.3 81 2.5 WNW 6 17 3 9 1007.3 1007.2 48.4
23/01:30am 28.7 34.2 25.3 82 2.4 WSW 6 15 3 8 1007.8 1007.7 48.4
23/01:00am 28.8 34.1 25.2 81 2.5 W 7 13 4 7 1007.8 1007.7 48.4
23/12:30am 28.8 34.3 25.6 83 2.3 W 7 17 4 9 1007.4 1007.3 48.4
23/12:00am 28.5 34.2 25.9 86 1.8 WNW 7 15 4 8 1007.2 1007.1 48.4
 
Date/Time
CST
Temp
°C
App
Temp
°C
Dew
Point
°C
Rel
Hum
%
Delta-T
°C
Wind Press
QNH
hPa
Press
MSL
hPa
Rain since
9am
mm
Dir  Spd
km/h
Gust
km/h
Spd
kts
Gust
kts
22/11:30pm 28.4 34.0 25.8 86 1.8 WNW 7 19 4 10 1007.4 1007.3 48.4
22/11:00pm 28.2 33.8 25.8 87 1.7 WNW 7 15 4 8 1007.7 1007.6 48.4
22/10:30pm 28.1 33.5 25.5 86 1.8 WNW 7 15 4 8 1007.8 1007.7 48.4
22/10:00pm 27.9 33.3 25.5 87 1.7 WNW 7 15 4 8 1007.7 1007.6 48.4
22/09:30pm 27.6 33.4 25.2 87 1.7 WNW 4 7 2 4 1007.9 1007.8 48.4
22/09:00pm 27.4 32.9 24.7 85 1.9 W 4 11 2 6 1007.3 1007.2 48.4
22/08:30pm 27.4 32.5 24.7 85 1.9 WNW 6 13 3 7 1006.7 1006.6 48.4
22/08:00pm 26.9 32.7 24.5 87 1.7 WNW 2 9 1 5 1006.2 1006.1 48.4
22/07:30pm 27.1 32.6 24.7 87 1.7 W 4 9 2 5 1006.1 1006.0 48.4
22/07:00pm 26.3 32.1 24.5 90 1.2 WSW 2 4 1 2 1006.1 1006.0 48.4
22/06:30pm 26.8 32.8 24.3 86 1.7 CALM 0 0 0 0 1005.7 1005.6 48.4
22/06:00pm 27.4 33.0 24.3 83 2.2 WNW 2 4 1 2 1005.3 1005.2 48.4
22/05:30pm 27.0 32.3 23.7 82 2.3 SW 2 6 1 3 1005.0 1004.9 48.4
22/05:00pm 26.1 31.2 23.4 85 1.8 SW 2 6 1 3 1005.2 1005.1 48.4
22/04:30pm 25.6 30.8 23.5 88 1.4 SW 2 4 1 2 1005.4 1005.3 48.4
22/04:00pm 24.6 29.7 23.4 93 0.8 NW 2 6 1 3 1005.6 1005.5 48.4
22/03:30pm 24.3 28.7 23.4 95 0.6 NW 6 9 3 5 1006.0 1005.9 48.0
22/03:00pm 23.8 28.6 22.8 94 0.7 W 2 6 1 3 1007.4 1007.3 47.0
22/02:30pm 23.8 27.9 23.0 95 0.5 SW 6 11 3 6 1007.9 1007.8 46.8
22/02:00pm 23.4 27.7 22.6 95 0.5 S 4 6 2 3 1008.2 1008.1 46.4
22/01:30pm 23.0 26.7 22.2 95 0.5 NW 6 13 3 7 1008.6 1008.5 44.8
22/01:00pm 23.0 26.5 22.2 95 0.5 NNE 7 13 4 7 1008.9 1008.8 43.4
22/12:30pm 23.1 25.4 22.1 94 0.7 ENE 13 20 7 11 1010.0 1009.9 40.2
22/12:00pm 22.7 23.8 21.9 95 0.5 ENE 19 30 10 16 1010.8 1010.7 36.4
22/11:30am 22.5 23.1 21.3 93 0.8 E 20 33 11 18 1011.4 1011.3 14.8
22/11:00am 24.0 23.7 21.1 84 1.9 E 24 43 13 23 1011.0 1010.9 0.0
22/10:30am 28.7 34.0 25.3 82 2.4 ESE 7 13 4 7 1010.8 1010.7 0.0
22/10:00am 28.7 34.8 25.1 81 2.5 WSW 2 6 1 3 1009.4 1009.3 0.0
22/09:30am 29.1 34.6 25.3 80 2.7 SW 6 9 3 5 1009.2 1009.1 0.0
22/09:00am 29.2 35.0 25.2 79 2.8 WSW 4 9 2 5 1008.9 1008.8 0.0
22/08:30am 29.3 34.7 25.1 78 3.0 W 6 15 3 8 1008.6 1008.5 0.0
22/08:00am 29.2 34.8 25.4 80 2.7 W 6 11 3 6 1008.1 1008.0 0.0
22/07:30am 29.1 34.6 25.3 80 2.7 W 6 13 3 7 1007.8 1007.7 0.0
22/07:00am 29.1 34.4 25.3 80 2.7 WNW 7 15 4 8 1007.5 1007.4 0.0
22/06:30am 29.0 34.4 25.2 80 2.7 WNW 6 13 3 7 1007.5 1007.4 0.0
22/06:00am 28.9 34.4 25.3 81 2.5 WNW 6 9 3 5 1007.5 1007.4 0.0
22/05:30am 28.8 34.6 25.2 81 2.5 NW 4 11 2 6 1007.2 1007.1 0.0
22/05:00am 29.0 34.8 25.2 80 2.7 WNW 4 11 2 6 1007.1 1007.0 0.0
22/04:30am 29.1 34.5 25.1 79 2.8 W 6 11 3 6 1007.1 1007.0 0.0
22/04:00am 29.0 34.4 25.2 80 2.7 WNW 6 13 3 7 1006.8 1006.7 0.0
22/03:30am 28.9 34.5 25.5 82 2.4 WNW 6 9 3 5 1007.4 1007.3 0.0
22/03:00am 28.9 34.5 25.5 82 2.4 NW 6 11 3 6 1007.6 1007.5 0.0
22/02:30am 28.7 34.6 25.3 82 2.4 WNW 4 9 2 5 1007.3 1007.2 0.0
22/02:00am 28.6 34.0 25.2 82 2.4 WNW 6 11 3 6 1007.2 1007.1 0.0
22/01:30am 28.6 34.2 25.4 83 2.3 WNW 6 11 3 6 1007.3 1007.2 0.0
22/01:00am 28.6 34.4 25.2 82 2.4 W 4 9 2 5 1007.8 1007.7 0.0
22/12:30am 28.7 34.6 25.3 82 2.4 WNW 4 9 2 5 1008.1 1008.0 0.0
22/12:00am 28.8 34.4 25.4 82 2.4 W 6 9 3 5 1008.3 1008.2 0.0
 
Date/Time
CST
Temp
°C
App
Temp
°C
Dew
Point
°C
Rel
Hum
%
Delta-T
°C
Wind Press
QNH
hPa
Press
MSL
hPa
Rain since
9am
mm
Dir  Spd
km/h
Gust
km/h
Spd
kts
Gust
kts
21/11:30pm 28.7 34.6 25.3 82 2.4 W 4 9 2 5 1008.4 1008.3 0.0
21/11:00pm 28.6 34.7 25.6 84 2.1 WSW 4 7 2 4 1008.7 1008.6 0.0
21/10:30pm 28.7 34.8 25.7 84 2.1 WSW 4 7 2 4 1008.8 1008.7 0.0
21/10:00pm 28.9 34.7 25.7 83 2.3 WSW 6 11 3 6 1008.3 1008.2 0.0
21/09:30pm 28.9 34.9 25.5 82 2.4 W 4 13 2 7 1008.1 1008.0 0.0
21/09:00pm 28.9 34.8 25.3 81 2.5 W 4 7 2 4 1007.8 1007.7 0.0
21/08:30pm 29.3 35.3 25.5 80 2.7 WSW 4 9 2 5 1007.7 1007.6 0.0

Latest Capital City Observations: Canberra | Sydney | Melbourne | Brisbane | Adelaide | Perth | Hobart | Darwin

Other formats

Comma delimited format used in spreadsheet applications
http://www.bom.gov.au/fwo/IDD60901/IDD60901.94119.axf

JavaScript Object Notation format (JSON) in row-major order
http://www.bom.gov.au/fwo/IDD60901/IDD60901.94119.json

Data quality

Most of these data are generated automatically and are frequently updated. Quality checks on data are not normally performed. It is possible for incorrect values to appear. Refer to information at About Latest Weather Observations and please check the disclaimer before using these data.